createdAt,value
2022-10-17T00:02:33.523Z,100277.00
2022-10-17T00:07:36.895Z,100275.41
2022-10-17T00:12:41.775Z,100279.00
2022-10-17T00:17:45.460Z,100265.59
2022-10-17T00:22:48.864Z,100261.13
2022-10-17T00:27:53.602Z,100269.66
2022-10-17T00:32:56.918Z,100262.22
2022-10-17T00:38:00.359Z,100260.56
2022-10-17T00:43:05.107Z,100272.03
2022-10-17T00:48:10.631Z,100281.31
2022-10-17T00:53:15.178Z,100281.28
2022-10-17T00:58:21.279Z,100281.00
2022-10-17T01:03:25.134Z,100285.28
2022-10-17T01:08:28.725Z,100280.69
2022-10-17T01:13:39.348Z,100285.81
2022-10-17T01:18:57.329Z,100289.41
2022-10-17T01:24:26.787Z,100288.63
2022-10-17T01:29:54.362Z,100279.84
2022-10-17T01:35:02.873Z,100279.06
2022-10-17T01:40:12.024Z,100281.72
2022-10-17T01:45:21.025Z,100285.28
2022-10-17T01:50:32.588Z,100286.09
2022-10-17T01:55:40.231Z,100288.31
2022-10-17T02:00:46.858Z,100294.44
2022-10-17T02:05:51.728Z,100294.22
2022-10-17T02:10:59.807Z,100298.06
2022-10-17T02:16:15.178Z,100317.88
2022-10-17T02:21:29.960Z,100316.13
2022-10-17T02:26:38.539Z,100320.34
2022-10-17T02:31:47.180Z,100326.44
2022-10-17T02:36:54.656Z,100324.66
2022-10-17T02:42:03.025Z,100326.19
2022-10-17T02:47:14.185Z,100330.78
2022-10-17T02:52:27.055Z,100344.63
2022-10-17T02:57:35.506Z,100349.78
2022-10-17T03:02:43.059Z,100353.88
2022-10-17T03:07:48.083Z,100354.50
2022-10-17T03:12:51.591Z,100355.00
2022-10-17T03:17:56.981Z,100353.34
2022-10-17T03:23:02.055Z,100353.28
2022-10-17T03:28:06.675Z,100352.19
2022-10-17T03:33:10.065Z,100363.47
2022-10-17T03:38:15.201Z,100366.75
2022-10-17T03:43:18.621Z,100370.81
2022-10-17T03:48:22.897Z,100368.03
2022-10-17T03:53:28.238Z,100375.13
2022-10-17T03:58:32.723Z,100379.44
2022-10-17T04:03:37.126Z,100380.09
2022-10-17T04:08:42.856Z,100378.47
2022-10-17T04:13:55.949Z,100391.53
2022-10-17T04:19:01.436Z,100389.69
2022-10-17T04:24:12.704Z,100390.22
2022-10-17T04:29:25.644Z,100394.44
2022-10-17T04:34:33.634Z,100391.09
2022-10-17T04:39:38.758Z,100399.13
2022-10-17T04:44:42.762Z,100395.84
2022-10-17T04:49:46.260Z,100403.91
2022-10-17T04:54:53.546Z,100401.66
2022-10-17T04:59:58.452Z,100409.78
2022-10-17T05:05:24.991Z,100421.38
2022-10-17T05:10:31.767Z,100415.53
2022-10-17T05:15:36.287Z,100419.44
2022-10-17T05:20:40.011Z,100418.13
2022-10-17T05:25:44.970Z,100429.28
2022-10-17T05:30:48.411Z,100432.28
2022-10-17T05:35:52.966Z,100442.97
2022-10-17T05:41:00.562Z,100447.56
2022-10-17T05:46:06.675Z,100459.28
2022-10-17T05:51:11.995Z,100465.59
2022-10-17T05:56:20.411Z,100475.38
2022-10-17T06:01:25.868Z,100476.81
2022-10-17T06:06:30.068Z,100479.41
2022-10-17T06:11:35.404Z,100482.53
2022-10-17T06:16:39.122Z,100487.28
2022-10-17T06:21:42.676Z,100492.06
2022-10-17T06:26:51.285Z,100493.53
2022-10-17T06:31:57.466Z,100496.84
2022-10-17T06:37:02.365Z,100491.41
2022-10-17T06:42:08.719Z,100498.97
2022-10-17T06:47:44.459Z,100501.22
2022-10-17T06:53:03.491Z,100495.44
2022-10-17T06:58:23.431Z,100498.38
2022-10-17T07:03:50.006Z,100497.69
2022-10-17T07:08:55.722Z,100498.56
2022-10-17T07:14:00.977Z,100504.78
2022-10-17T07:19:04.827Z,100517.28
2022-10-17T07:24:12.470Z,100517.38
2022-10-17T07:29:20.632Z,100509.53
2022-10-17T07:34:35.505Z,100510.44
2022-10-17T07:39:40.173Z,100507.84
2022-10-17T07:44:47.473Z,100499.88
2022-10-17T07:49:51.541Z,100505.09
2022-10-17T07:54:54.995Z,100506.84
2022-10-17T08:00:00.105Z,100500.53
2022-10-17T08:05:03.474Z,100507.44
2022-10-17T08:15:13.761Z,100503.69
2022-10-17T08:20:17.308Z,100497.34
2022-10-17T08:25:20.735Z,100501.34
2022-10-17T08:30:25.791Z,100501.84
2022-10-17T08:35:29.375Z,100506.97
2022-10-17T08:40:33.878Z,100509.44
2022-10-17T08:45:46.263Z,100510.09
2022-10-17T08:50:54.258Z,100512.13
2022-10-17T08:55:59.293Z,100515.06
2022-10-17T09:01:13.274Z,100513.16
2022-10-17T09:06:24.518Z,100512.09
2022-10-17T09:11:50.125Z,100508.91
2022-10-17T09:17:09.932Z,100507.88
2022-10-17T09:22:18.406Z,100521.75
2022-10-17T09:27:25.640Z,100520.13
2022-10-17T09:32:30.603Z,100531.75
2022-10-17T09:37:34.358Z,100522.75
2022-10-17T09:42:38.306Z,100516.44
2022-10-17T09:52:55.266Z,100511.66
2022-10-17T09:58:00.281Z,100506.88
2022-10-17T10:03:23.410Z,100499.06
2022-10-17T10:08:30.225Z,100487.75
2022-10-17T10:13:35.704Z,100499.97
2022-10-17T10:18:40.622Z,100491.00
2022-10-17T10:23:45.363Z,100493.94
2022-10-17T10:28:55.483Z,100489.38
2022-10-17T10:34:03.430Z,100483.53
2022-10-17T10:39:07.968Z,100485.72
2022-10-17T10:44:16.249Z,100493.19
2022-10-17T10:49:35.785Z,100481.59
2022-10-17T10:54:43.562Z,100484.66
2022-10-17T10:59:58.432Z,100475.44
2022-10-17T11:05:08.196Z,100478.06
2022-10-17T11:10:18.922Z,100474.34
2022-10-17T11:15:27.187Z,100472.47
2022-10-17T11:20:39.705Z,100473.44
2022-10-17T11:25:43.396Z,100461.53
2022-10-17T11:30:51.450Z,100456.16
2022-10-17T11:36:02.755Z,100442.25
2022-10-17T11:41:09.126Z,100445.59
2022-10-17T11:46:16.690Z,100447.84
2022-10-17T11:56:52.860Z,100441.34
2022-10-17T12:02:01.021Z,100435.53
2022-10-17T12:07:16.944Z,100437.34
2022-10-17T12:12:29.256Z,100440.31
2022-10-17T12:17:37.003Z,100434.63
2022-10-17T12:22:48.243Z,100437.72
2022-10-17T12:27:52.480Z,100434.31
2022-10-17T12:33:06.593Z,100432.34
2022-10-17T12:38:28.736Z,100439.47
2022-10-17T12:43:53.888Z,100442.31
2022-10-17T12:49:02.668Z,100435.88
2022-10-17T12:54:13.657Z,100436.94
2022-10-17T12:59:19.577Z,100439.19
2022-10-17T13:04:24.047Z,100429.94
2022-10-17T13:09:31.457Z,100433.28
2022-10-17T13:14:35.853Z,100434.31
2022-10-17T13:19:43.675Z,100435.66
2022-10-17T13:24:49.449Z,100436.41
2022-10-17T13:29:53.088Z,100438.00
2022-10-17T13:35:12.776Z,100447.53
2022-10-17T13:40:40.751Z,100452.06
2022-10-17T13:45:50.894Z,100453.44
2022-10-17T13:51:00.362Z,100453.53
2022-10-17T13:56:34.464Z,100453.59
2022-10-17T14:01:39.608Z,100457.13
2022-10-17T14:06:47.866Z,100458.22
2022-10-17T14:12:02.994Z,100466.44
2022-10-17T14:17:14.785Z,100478.06
2022-10-17T14:22:25.549Z,100473.94
2022-10-17T14:27:34.580Z,100488.97
2022-10-17T14:32:39.118Z,100482.09
2022-10-17T14:37:46.043Z,100490.06
2022-10-17T14:42:52.108Z,100496.22
2022-10-17T14:47:58.557Z,100502.44
2022-10-17T14:53:05.372Z,100491.91
2022-10-17T14:58:23.148Z,100497.22
2022-10-17T15:03:27.217Z,100502.53
2022-10-17T15:08:30.672Z,100506.97
2022-10-17T15:13:41.020Z,100510.50
2022-10-17T15:18:45.592Z,100514.88
2022-10-17T15:23:49.107Z,100520.97
2022-10-17T15:28:54.780Z,100532.31
2022-10-17T15:33:58.436Z,100527.94
2022-10-17T15:39:03.316Z,100534.91
2022-10-17T15:44:08.798Z,100537.47
2022-10-17T15:49:14.867Z,100540.03
2022-10-17T15:54:18.252Z,100556.56
2022-10-17T15:59:26.241Z,100546.03
2022-10-17T16:04:30.732Z,100544.13
2022-10-17T16:09:34.448Z,100551.09
2022-10-17T16:14:39.238Z,100556.25
2022-10-17T16:19:42.807Z,100550.06
2022-10-17T16:24:46.481Z,100558.63
2022-10-17T16:29:51.265Z,100558.59
2022-10-17T16:34:54.711Z,100560.25
2022-10-17T16:39:58.135Z,100567.25
2022-10-17T16:45:03.516Z,100574.09
2022-10-17T16:50:07.922Z,100582.66
2022-10-17T16:55:12.072Z,100587.72
2022-10-17T17:00:18.287Z,100584.13
2022-10-17T17:05:21.646Z,100591.00
2022-10-17T17:10:24.997Z,100596.78
2022-10-17T17:15:29.800Z,100596.44
2022-10-17T17:20:34.980Z,100606.50
2022-10-17T17:25:39.465Z,100609.19
2022-10-17T17:30:44.202Z,100609.06
2022-10-17T17:35:47.633Z,100613.75
2022-10-17T17:40:51.893Z,100603.44
2022-10-17T17:45:57.018Z,100608.91
2022-10-17T17:51:04.503Z,100603.91
2022-10-17T17:56:10.266Z,100611.38
2022-10-17T18:01:20.439Z,100606.50
2022-10-17T18:06:24.250Z,100604.41
2022-10-17T18:11:28.921Z,100611.31
2022-10-17T18:16:35.423Z,100604.19
2022-10-17T18:21:39.179Z,100606.97
2022-10-17T18:26:42.556Z,100616.16
2022-10-17T18:31:47.781Z,100615.38
2022-10-17T18:36:52.894Z,100620.13
2022-10-17T18:41:56.331Z,100614.94
2022-10-17T18:47:04.100Z,100620.34
2022-10-17T18:52:08.058Z,100615.13
2022-10-17T18:57:11.400Z,100620.69
2022-10-17T19:02:16.154Z,100622.50
2022-10-17T19:07:20.262Z,100626.28
2022-10-17T19:12:23.639Z,100628.03
2022-10-17T19:17:28.780Z,100632.38
2022-10-17T19:22:33.250Z,100632.78
2022-10-17T19:27:37.602Z,100641.69
2022-10-17T19:32:42.474Z,100642.56
2022-10-17T19:37:46.109Z,100643.91
2022-10-17T19:42:49.703Z,100638.00
2022-10-17T19:47:54.504Z,100642.44
2022-10-17T19:52:57.911Z,100640.66
2022-10-17T19:58:02.803Z,100641.63
2022-10-17T20:03:07.541Z,100641.03
2022-10-17T20:08:10.949Z,100633.00
2022-10-17T20:13:15.238Z,100636.22
2022-10-17T20:18:20.316Z,100631.91
2022-10-17T20:23:24.100Z,100624.13
2022-10-17T20:28:27.742Z,100629.94
2022-10-17T20:33:32.855Z,100616.88
2022-10-17T20:38:36.868Z,100620.97
2022-10-17T20:43:40.523Z,100625.91
2022-10-17T20:48:45.377Z,100628.72
2022-10-17T20:53:49.326Z,100620.53
2022-10-17T20:58:54.731Z,100627.28
2022-10-17T21:04:10.606Z,100624.69
2022-10-17T21:09:23.501Z,100613.00
2022-10-17T21:14:26.991Z,100614.16
2022-10-17T21:19:31.789Z,100608.75
2022-10-17T21:24:35.196Z,100612.56
2022-10-17T21:29:38.491Z,100611.63
2022-10-17T21:34:43.570Z,100603.22
2022-10-17T21:39:46.961Z,100600.25
2022-10-17T21:44:50.702Z,100609.13
2022-10-17T21:49:56.206Z,100602.56
2022-10-17T21:54:59.811Z,100603.69
2022-10-17T22:00:03.264Z,100594.91
2022-10-17T22:05:17.581Z,100594.72
2022-10-17T22:10:20.977Z,100596.38
2022-10-17T22:15:24.690Z,100594.69
2022-10-17T22:20:29.553Z,100599.38
2022-10-17T22:25:33.044Z,100605.66
2022-10-17T22:30:36.765Z,100600.31
2022-10-17T22:35:41.968Z,100607.28
2022-10-17T22:40:46.303Z,100605.25
2022-10-17T22:45:56.728Z,100601.84
2022-10-17T22:51:01.906Z,100598.28
2022-10-17T22:56:08.467Z,100588.97
2022-10-17T23:01:16.152Z,100588.59
2022-10-17T23:06:22.192Z,100588.22
2022-10-17T23:11:25.647Z,100589.59
2022-10-17T23:16:29.016Z,100588.34
2022-10-17T23:21:34.078Z,100580.66
2022-10-17T23:26:37.477Z,100580.75
2022-10-17T23:31:41.135Z,100581.00
2022-10-17T23:36:45.913Z,100584.94
2022-10-17T23:41:49.297Z,100564.31
2022-10-17T23:46:52.657Z,100572.25
2022-10-17T23:51:57.391Z,100572.63
2022-10-17T23:57:00.778Z,100570.19
